Overview Statistics Trail Chart Weather Telemetry Raw packets
 

This is the latest recevied weather packets stored in our database for station/object JO1YDG-13. If no packets are shown the sender has not sent any weather packets the latest 10 day(s).

<< 92 93 94 95 96 >>
Time Temp. Humidity Pressure Rain* Wind** Luminosity Snow
1787878855 27.78° C 75% 1006 hPa 0 mm - - -
1787878555 27.78° C 75% 1006 hPa 0 mm - - -
1787878257 26.11° C 81% 1005.9 hPa 0 mm - - -
1787877957 26.11° C 80% 1005.9 hPa 0 mm - - -
1787877656 25° C 84% 1005.9 hPa 0 mm - - -
1787877355 25° C 86% 1005.9 hPa 0 mm - - -
1787877055 25° C 87% 1005.9 hPa 0 mm - - -
1787876755 24.44° C 89% 1005.7 hPa 0 mm - - -
1787876456 24.44° C 89% 1005.7 hPa 0 mm - - -
1787876156 25° C 88% 1005.7 hPa 0 mm - - -
1787875855 25° C 87% 1006 hPa 0 mm - - -
1787875555 25° C 86% 1006 hPa 0 mm - - -
1787875255 24.44° C 88% 1006.2 hPa 0 mm - - -
1787874955 24.44° C 89% 1006.2 hPa 0 mm - - -
1787874657 24.44° C 89% 1006.1 hPa 0 mm - - -
1787874360 24.44° C 88% 1006.1 hPa 0 mm - - -
1787874056 24.44° C 88% 1006.1 hPa 0 mm - - -
1787873756 24.44° C 89% 1006 hPa 0 mm - - -
1787873455 24.44° C 90% 1006 hPa 0 mm - - -
1787873155 23.89° C 90% 1006.1 hPa 0 mm - - -
1787872855 23.89° C 90% 1006.1 hPa 0 mm - - -
1787872557 24.44° C 90% 1006.1 hPa 0 mm - - -
1787872257 23.89° C 89% 1006.3 hPa 0 mm - - -
1787871957 24.44° C 89% 1006.3 hPa 0 mm - - -
1787871656 24.44° C 89% 1006.2 hPa 0 mm - - -

* Rain latest hour (hover to see other rain measurements)
** Current wind speed in m/s (hover to see current wind gust speed)